Time;durP1;ratioP1;P1;durP2;ratioP2;P2;SDS_P1;SDS_P2;PMS_P1;PMS_P2;Temp;Humidity;BMP_temperature;BMP_pressure;BME280_temperature;BME280_humidity;BME280_pressure;Samples;Min_cycle;Max_cycle;Signal;HPM_P1;HPM_P2
2021/11/13 00:00:58;;;;;;;17.10;7.75;;;;;;;;;;5082270;28;20044;-67
2021/11/13 00:03:26;;;;;;;20.55;8.23;;;;;;;;;;5090628;28;20094;-68
2021/11/13 00:05:54;;;;;;;21.98;9.25;;;;;;;;;;5087967;28;20040;-67
2021/11/13 00:08:24;;;;;;;20.83;8.38;;;;;;;;;;5087221;28;20101;-67
2021/11/13 00:10:52;;;;;;;21.48;8.07;;;;;;;;;;5088706;28;20492;-67
2021/11/13 00:13:22;;;;;;;17.85;8.35;;;;;;;;;;5088764;28;20131;-67
2021/11/13 00:15:50;;;;;;;23.73;8.73;;;;;;;;;;5088847;28;20151;-67
2021/11/13 00:18:19;;;;;;;17.73;8.07;;;;;;;;;;5099923;28;20380;-67
2021/11/13 00:20:50;;;;;;;20.13;8.55;;;;;;;;;;5087060;28;20119;-67
2021/11/13 00:23:19;;;;;;;18.58;8.13;;;;;;;;;;5088259;28;20177;-68
2021/11/13 00:25:49;;;;;;;17.90;8.13;;;;;;;;;;5089283;28;20040;-67
2021/11/13 00:28:17;;;;;;;23.13;9.15;;;;;;;;;;5085706;28;20135;-67
2021/11/13 00:30:46;;;;;;;20.38;9.02;;;;;;;;;;5088225;28;20079;-68
2021/11/13 00:33:14;;;;;;;22.55;8.23;;;;;;;;;;5085874;28;20131;-67
2021/11/13 00:35:42;;;;;;;15.85;7.32;;;;;;;;;;5085971;28;20471;-67
2021/11/13 00:38:11;;;;;;;21.83;8.27;;;;;;;;;;5091380;28;20087;-67
2021/11/13 00:40:39;;;;;;;18.63;8.38;;;;;;;;;;5090687;28;20052;-67
2021/11/13 00:43:09;;;;;;;19.92;8.80;;;;;;;;;;5091606;28;20071;-67
2021/11/13 00:45:37;;;;;;;17.58;7.72;;;;;;;;;;5095022;28;20048;-67
2021/11/13 00:48:07;;;;;;;18.38;8.30;;;;;;;;;;5109284;28;20082;-67
2021/11/13 00:50:35;;;;;;;16.35;7.63;;;;;;;;;;5071457;28;20131;-67
2021/11/13 00:53:04;;;;;;;20.33;8.07;;;;;;;;;;5091662;28;20474;-67
2021/11/13 00:55:32;;;;;;;21.58;8.70;;;;;;;;;;5093546;28;20107;-67
2021/11/13 00:58:00;;;;;;;23.15;9.77;;;;;;;;;;5091685;28;20036;-67
2021/11/13 01:00:30;;;;;;;17.45;8.18;;;;;;;;;;5091599;28;20101;-69
2021/11/13 01:02:59;;;;;;;23.15;8.38;;;;;;;;;;5092696;28;20047;-67
2021/11/13 01:05:27;;;;;;;19.85;8.30;;;;;;;;;;5084163;28;20047;-67
2021/11/13 01:07:56;;;;;;;17.60;7.93;;;;;;;;;;5092483;28;20051;-68
2021/11/13 01:10:25;;;;;;;21.58;8.55;;;;;;;;;;5091531;28;20040;-67
2021/11/13 01:12:53;;;;;;;19.42;8.40;;;;;;;;;;5090546;28;20080;-67
2021/11/13 01:15:22;;;;;;;23.35;8.60;;;;;;;;;;5091720;28;20490;-67
2021/11/13 01:17:52;;;;;;;20.73;8.07;;;;;;;;;;5095355;28;20100;-67
2021/11/13 01:20:21;;;;;;;21.95;9.05;;;;;;;;;;5083214;28;20143;-67
2021/11/13 01:22:50;;;;;;;23.52;8.93;;;;;;;;;;5098571;28;20079;-68
2021/11/13 01:25:18;;;;;;;19.67;8.90;;;;;;;;;;5091159;28;20044;-68
2021/11/13 01:27:48;;;;;;;17.58;8.32;;;;;;;;;;5031060;28;20060;-67
2021/11/13 01:30:16;;;;;;;17.80;8.43;;;;;;;;;;324703;28;10022730;-67
2021/11/13 01:32:45;;;;;;;22.80;9.15;;;;;;;;;;5050722;28;20157;-66
2021/11/13 01:35:15;;;;;;;22.00;9.43;;;;;;;;;;5054354;28;20072;-67
2021/11/13 01:37:44;;;;;;;20.08;8.93;;;;;;;;;;5052948;28;20046;-67
2021/11/13 01:40:13;;;;;;;23.42;9.10;;;;;;;;;;5050451;28;20149;-67
2021/11/13 01:42:42;;;;;;;23.42;9.40;;;;;;;;;;5051975;28;20056;-67
2021/11/13 01:45:10;;;;;;;19.67;8.77;;;;;;;;;;5048717;28;20049;-68
2021/11/13 01:47:39;;;;;;;20.15;8.73;;;;;;;;;;5053034;28;20044;-67
2021/11/13 01:50:12;;;;;;;21.77;9.77;;;;;;;;;;5051054;28;20128;-67
2021/11/13 01:52:42;;;;;;;23.83;9.80;;;;;;;;;;5047419;28;20080;-67
2021/11/13 01:55:11;;;;;;;17.58;8.30;;;;;;;;;;5046588;28;20107;-67
2021/11/13 01:57:46;;;;;;;19.65;8.68;;;;;;;;;;5050073;28;20495;-67
2021/11/13 02:00:17;;;;;;;20.48;8.57;;;;;;;;;;5051916;28;20099;-67
2021/11/13 02:02:46;;;;;;;22.27;9.30;;;;;;;;;;5050722;28;20080;-67
2021/11/13 02:05:14;;;;;;;26.15;8.82;;;;;;;;;;5047009;28;20118;-67
2021/11/13 02:07:44;;;;;;;19.60;8.63;;;;;;;;;;5050597;28;20128;-67
2021/11/13 02:10:13;;;;;;;15.82;8.82;;;;;;;;;;5050873;28;20073;-67
2021/11/13 02:12:41;;;;;;;22.25;8.85;;;;;;;;;;5050613;28;20072;-67
2021/11/13 02:15:10;;;;;;;18.73;7.90;;;;;;;;;;5037979;28;20128;-67
2021/11/13 02:17:38;;;;;;;17.65;8.48;;;;;;;;;;5058853;28;20116;-67
2021/11/13 02:20:19;;;;;;;18.83;7.57;;;;;;;;;;5056483;28;20144;-67
2021/11/13 02:22:47;;;;;;;17.35;7.68;;;;;;;;;;5052828;28;20131;-67
2021/11/13 02:25:16;;;;;;;19.40;8.45;;;;;;;;;;5052415;28;20053;-68
2021/11/13 02:27:45;;;;;;;20.05;8.40;;;;;;;;;;5050591;28;20044;-67
2021/11/13 02:30:14;;;;;;;19.52;8.75;;;;;;;;;;5047903;28;20135;-67
2021/11/13 02:32:43;;;;;;;20.10;8.57;;;;;;;;;;5060697;28;20080;-67
2021/11/13 02:35:12;;;;;;;20.75;8.60;;;;;;;;;;5056100;28;20123;-67
2021/11/13 02:37:42;;;;;;;21.92;9.30;;;;;;;;;;5050951;28;20136;-67
2021/11/13 02:40:11;;;;;;;23.85;9.65;;;;;;;;;;5049341;28;20144;-67
2021/11/13 02:42:40;;;;;;;22.48;9.63;;;;;;;;;;5054005;28;20045;-67
2021/11/13 02:45:10;;;;;;;20.48;8.40;;;;;;;;;;5047640;28;20120;-67
2021/11/13 02:47:40;;;;;;;19.58;8.68;;;;;;;;;;5045218;28;20452;-67
2021/11/13 02:50:10;;;;;;;21.98;8.93;;;;;;;;;;5050156;28;20045;-66
2021/11/13 02:52:47;;;;;;;20.33;8.80;;;;;;;;;;5047629;28;20429;-67
2021/11/13 02:55:16;;;;;;;22.48;9.40;;;;;;;;;;5037441;28;20484;-68
2021/11/13 02:57:44;;;;;;;19.23;8.98;;;;;;;;;;5047101;28;20160;-67
2021/11/13 03:00:14;;;;;;;19.67;8.88;;;;;;;;;;5049833;28;20123;-68
2021/11/13 03:02:42;;;;;;;19.38;8.55;;;;;;;;;;5045813;28;20088;-67
2021/11/13 03:05:20;;;;;;;21.08;8.40;;;;;;;;;;5045141;28;20556;-67
2021/11/13 03:07:50;;;;;;;19.67;9.05;;;;;;;;;;5049822;28;20488;-68
2021/11/13 03:10:18;;;;;;;20.20;8.90;;;;;;;;;;5048835;28;20547;-67
2021/11/13 03:12:47;;;;;;;25.40;9.82;;;;;;;;;;5050177;28;20079;-66
2021/11/13 03:15:17;;;;;;;22.00;9.00;;;;;;;;;;5044956;28;20135;-67
2021/11/13 03:17:45;;;;;;;16.58;8.20;;;;;;;;;;5050901;28;20128;-67
2021/11/13 03:20:15;;;;;;;19.45;8.60;;;;;;;;;;5053524;28;20037;-67
2021/11/13 03:22:44;;;;;;;18.23;8.27;;;;;;;;;;5046176;28;20141;-67
2021/11/13 03:25:14;;;;;;;18.20;8.68;;;;;;;;;;5045412;28;20037;-68
2021/11/13 03:27:44;;;;;;;17.70;8.93;;;;;;;;;;5053594;28;20056;-67
2021/11/13 03:30:17;;;;;;;18.83;8.30;;;;;;;;;;5048014;28;20140;-67
2021/11/13 03:32:45;;;;;;;18.55;8.25;;;;;;;;;;5054651;28;20140;-67
2021/11/13 03:35:15;;;;;;;18.17;8.50;;;;;;;;;;5046351;28;20123;-67
2021/11/13 03:37:44;;;;;;;15.82;7.88;;;;;;;;;;5049211;28;20092;-67
2021/11/13 03:40:14;;;;;;;19.65;7.78;;;;;;;;;;5045989;28;20041;-67
2021/11/13 03:42:43;;;;;;;16.42;7.53;;;;;;;;;;5048223;28;20067;-67
2021/11/13 03:45:11;;;;;;;19.75;8.30;;;;;;;;;;5055821;28;20135;-67
2021/11/13 03:47:39;;;;;;;18.23;8.02;;;;;;;;;;5047099;28;20501;-67
2021/11/13 03:50:08;;;;;;;14.60;6.93;;;;;;;;;;5056898;28;20052;-67
2021/11/13 03:52:36;;;;;;;16.63;7.78;;;;;;;;;;5047016;28;20140;-67
2021/11/13 03:55:05;;;;;;;16.35;7.30;;;;;;;;;;5048675;28;20084;-67
2021/11/13 03:57:35;;;;;;;15.70;8.07;;;;;;;;;;5050507;28;20048;-67
2021/11/13 04:00:04;;;;;;;17.45;7.82;;;;;;;;;;5048267;28;20520;-67
2021/11/13 04:02:33;;;;;;;15.80;7.80;;;;;;;;;;5056840;28;20075;-67
2021/11/13 04:05:01;;;;;;;16.08;7.57;;;;;;;;;;5047712;28;20055;-67
2021/11/13 04:07:29;;;;;;;12.68;6.82;;;;;;;;;;5044062;28;20043;-67
2021/11/13 04:09:58;;;;;;;17.30;7.47;;;;;;;;;;5042430;28;20087;-67
2021/11/13 04:12:26;;;;;;;14.23;7.38;;;;;;;;;;5050098;28;20139;-68
2021/11/13 04:14:55;;;;;;;14.40;7.57;;;;;;;;;;5044022;28;20041;-67
2021/11/13 04:17:24;;;;;;;17.67;8.05;;;;;;;;;;5047623;28;20076;-67
2021/11/13 04:19:52;;;;;;;17.38;6.57;;;;;;;;;;5046176;28;20084;-67
2021/11/13 04:22:20;;;;;;;15.60;6.72;;;;;;;;;;5053972;28;20083;-67
2021/11/13 04:24:50;;;;;;;15.15;7.10;;;;;;;;;;5048724;28;20132;-67
2021/11/13 04:27:18;;;;;;;11.70;6.45;;;;;;;;;;5047049;28;20757;-67
2021/11/13 04:29:47;;;;;;;15.00;6.75;;;;;;;;;;5048100;28;20407;-67
2021/11/13 04:32:17;;;;;;;12.40;6.75;;;;;;;;;;5055795;28;20123;-67
2021/11/13 04:34:49;;;;;;;14.30;6.55;;;;;;;;;;5043338;28;20132;-67
2021/11/13 04:37:18;;;;;;;15.30;6.30;;;;;;;;;;5055056;28;20053;-67
2021/11/13 04:39:47;;;;;;;15.77;7.13;;;;;;;;;;5046518;28;20045;-67
2021/11/13 04:42:15;;;;;;;10.00;5.97;;;;;;;;;;5047126;28;20047;-67
2021/11/13 04:44:43;;;;;;;12.13;6.20;;;;;;;;;;5049369;28;20064;-67
2021/11/13 04:47:12;;;;;;;12.73;6.70;;;;;;;;;;5050367;28;20128;-66
2021/11/13 04:49:42;;;;;;;10.55;5.63;;;;;;;;;;5052145;28;20081;-67
2021/11/13 04:52:11;;;;;;;15.38;7.60;;;;;;;;;;5047242;28;20041;-67
2021/11/13 04:54:39;;;;;;;13.52;6.75;;;;;;;;;;5050822;28;20065;-67
2021/11/13 04:57:09;;;;;;;11.55;6.13;;;;;;;;;;5052425;28;20136;-70
2021/11/13 04:59:37;;;;;;;13.88;6.28;;;;;;;;;;5048669;28;20128;-67
2021/11/13 05:02:05;;;;;;;14.30;6.28;;;;;;;;;;5045727;28;20045;-67
2021/11/13 05:04:33;;;;;;;16.40;7.30;;;;;;;;;;5053395;28;20112;-67
2021/11/13 05:07:03;;;;;;;13.70;6.85;;;;;;;;;;5060114;28;20067;-67
2021/11/13 05:09:32;;;;;;;14.60;5.85;;;;;;;;;;5049469;28;20071;-67
2021/11/13 05:12:00;;;;;;;14.02;6.13;;;;;;;;;;5047480;28;20524;-68
2021/11/13 05:14:28;;;;;;;14.43;6.72;;;;;;;;;;5047850;28;20127;-67
2021/11/13 05:16:56;;;;;;;12.73;6.80;;;;;;;;;;5049167;28;20143;-67
2021/11/13 05:19:25;;;;;;;15.80;6.75;;;;;;;;;;5047889;28;20552;-67
2021/11/13 05:21:53;;;;;;;16.38;7.57;;;;;;;;;;5052307;28;20144;-67
2021/11/13 05:24:23;;;;;;;18.48;7.63;;;;;;;;;;5050295;28;20151;-67
2021/11/13 05:26:51;;;;;;;15.15;6.78;;;;;;;;;;5045506;28;20072;-67
2021/11/13 05:29:19;;;;;;;14.93;7.07;;;;;;;;;;5056405;28;20115;-67
2021/11/13 05:31:47;;;;;;;14.50;6.72;;;;;;;;;;5050537;28;20128;-67
2021/11/13 05:34:16;;;;;;;15.07;7.00;;;;;;;;;;5049376;28;20051;-68
2021/11/13 05:36:45;;;;;;;13.68;7.28;;;;;;;;;;5051462;28;20077;-67
2021/11/13 05:39:14;;;;;;;15.10;7.65;;;;;;;;;;5066455;28;21462;-66
2021/11/13 05:41:44;;;;;;;14.25;7.30;;;;;;;;;;5056730;28;20041;-67
2021/11/13 05:44:12;;;;;;;18.00;7.18;;;;;;;;;;5056063;28;20480;-68
2021/11/13 05:46:41;;;;;;;13.15;6.57;;;;;;;;;;5052109;28;20136;-67
2021/11/13 05:49:09;;;;;;;16.58;8.05;;;;;;;;;;5051437;28;20143;-67
2021/11/13 05:51:37;;;;;;;12.27;6.80;;;;;;;;;;5051104;28;20045;-67
2021/11/13 05:54:06;;;;;;;14.48;7.35;;;;;;;;;;5051548;28;20053;-68
2021/11/13 05:56:34;;;;;;;17.70;7.63;;;;;;;;;;5051083;28;20393;-68
2021/11/13 05:59:04;;;;;;;17.23;7.32;;;;;;;;;;5051735;28;20044;-67
2021/11/13 06:01:33;;;;;;;14.00;6.65;;;;;;;;;;5050200;28;20045;-67
2021/11/13 06:04:01;;;;;;;15.60;7.25;;;;;;;;;;5050653;28;20087;-67
2021/11/13 06:06:29;;;;;;;18.33;7.38;;;;;;;;;;5050477;28;20080;-67
2021/11/13 06:08:57;;;;;;;14.05;7.22;;;;;;;;;;5047159;28;20514;-67
2021/11/13 06:11:26;;;;;;;19.15;7.32;;;;;;;;;;5046414;28;20136;-68
2021/11/13 06:13:54;;;;;;;16.13;7.78;;;;;;;;;;5051739;28;20108;-67
2021/11/13 06:16:24;;;;;;;17.52;8.07;;;;;;;;;;5042291;28;20184;-67
2021/11/13 06:18:52;;;;;;;17.42;7.40;;;;;;;;;;5043849;28;20045;-68
2021/11/13 06:21:20;;;;;;;19.20;7.32;;;;;;;;;;5046822;28;20084;-67
2021/11/13 06:23:49;;;;;;;17.25;7.28;;;;;;;;;;5050550;28;20083;-67
2021/11/13 06:26:18;;;;;;;16.65;7.60;;;;;;;;;;5057453;28;20545;-68
2021/11/13 06:28:47;;;;;;;19.92;8.38;;;;;;;;;;5049604;28;20103;-68
2021/11/13 06:31:16;;;;;;;18.25;8.05;;;;;;;;;;5053318;28;20448;-67
2021/11/13 06:33:46;;;;;;;16.60;8.15;;;;;;;;;;5049938;28;20147;-67
2021/11/13 06:36:14;;;;;;;18.38;8.15;;;;;;;;;;5047531;28;20492;-67
2021/11/13 06:38:43;;;;;;;17.27;7.07;;;;;;;;;;5050912;28;20069;-67
2021/11/13 06:41:11;;;;;;;18.52;8.32;;;;;;;;;;5050484;28;20037;-67
2021/11/13 06:43:40;;;;;;;17.83;8.13;;;;;;;;;;5050284;28;20148;-69
2021/11/13 06:46:08;;;;;;;17.65;7.43;;;;;;;;;;5045912;28;20132;-68
2021/11/13 06:48:37;;;;;;;20.08;8.40;;;;;;;;;;5061002;28;20049;-68
2021/11/13 06:51:07;;;;;;;18.25;8.55;;;;;;;;;;5059304;28;20144;-67
2021/11/13 06:53:36;;;;;;;18.00;7.93;;;;;;;;;;5048193;28;20075;-68
2021/11/13 06:56:04;;;;;;;20.67;8.43;;;;;;;;;;5048258;28;20037;-68
2021/11/13 06:58:32;;;;;;;19.27;8.90;;;;;;;;;;5050701;28;20140;-68
2021/11/13 07:01:01;;;;;;;15.95;7.72;;;;;;;;;;5051208;28;20488;-67
2021/11/13 07:03:29;;;;;;;17.35;8.35;;;;;;;;;;5044992;28;20053;-67
2021/11/13 07:05:57;;;;;;;18.35;8.20;;;;;;;;;;5051116;28;20504;-68
2021/11/13 07:08:27;;;;;;;19.10;8.10;;;;;;;;;;5045925;28;20055;-68
2021/11/13 07:10:55;;;;;;;18.58;8.05;;;;;;;;;;5048083;28;20122;-68
2021/11/13 07:13:24;;;;;;;17.48;8.27;;;;;;;;;;5051945;28;20096;-67
2021/11/13 07:15:53;;;;;;;16.83;8.15;;;;;;;;;;5047939;28;20065;-68
2021/11/13 07:18:25;;;;;;;20.98;8.38;;;;;;;;;;5051806;28;20476;-67
2021/11/13 07:20:55;;;;;;;21.38;8.65;;;;;;;;;;5050550;28;20049;-68
2021/11/13 07:23:23;;;;;;;17.52;7.65;;;;;;;;;;5050106;28;20560;-68
2021/11/13 07:25:53;;;;;;;20.48;7.97;;;;;;;;;;5049594;28;20172;-67
2021/11/13 07:28:34;;;;;;;24.05;8.48;;;;;;;;;;5046272;28;20444;-69
2021/11/13 07:31:02;;;;;;;19.75;8.25;;;;;;;;;;5047503;28;20053;-67
2021/11/13 07:33:31;;;;;;;20.20;8.23;;;;;;;;;;5043652;28;20420;-68
2021/11/13 07:35:59;;;;;;;20.75;9.60;;;;;;;;;;5036967;28;20489;-68
2021/11/13 07:38:28;;;;;;;20.35;8.60;;;;;;;;;;5046188;28;20155;-68
2021/11/13 07:40:58;;;;;;;19.35;8.88;;;;;;;;;;5041882;28;20131;-68
2021/11/13 07:43:26;;;;;;;21.60;9.55;;;;;;;;;;5050549;28;20101;-69
2021/11/13 07:45:55;;;;;;;15.77;7.32;;;;;;;;;;5047427;28;20088;-68
2021/11/13 07:48:23;;;;;;;19.67;8.15;;;;;;;;;;5047420;28;20049;-67
2021/11/13 07:50:52;;;;;;;16.63;7.53;;;;;;;;;;5038902;28;20103;-67
2021/11/13 07:53:20;;;;;;;17.27;8.23;;;;;;;;;;5036811;28;20140;-69
2021/11/13 07:55:49;;;;;;;17.80;8.18;;;;;;;;;;5046073;28;20450;-69
2021/11/13 07:58:19;;;;;;;19.80;9.02;;;;;;;;;;5045628;28;20053;-68
2021/11/13 08:00:48;;;;;;;16.65;7.55;;;;;;;;;;5045342;28;20139;-69
2021/11/13 08:03:17;;;;;;;18.17;7.55;;;;;;;;;;5045034;28;20423;-68
2021/11/13 08:05:45;;;;;;;18.08;7.07;;;;;;;;;;5042952;28;20044;-67
2021/11/13 08:08:14;;;;;;;15.40;7.50;;;;;;;;;;5045841;28;20075;-66
2021/11/13 08:10:43;;;;;;;20.40;7.90;;;;;;;;;;5048942;28;20140;-66
2021/11/13 08:13:12;;;;;;;16.75;7.55;;;;;;;;;;5045896;28;20114;-66
2021/11/13 08:15:47;;;;;;;17.35;7.10;;;;;;;;;;5046606;28;20484;-66
2021/11/13 08:18:16;;;;;;;15.30;7.57;;;;;;;;;;5046441;28;20609;-66
2021/11/13 08:20:46;;;;;;;15.43;7.78;;;;;;;;;;5042197;28;20045;-66
2021/11/13 08:23:15;;;;;;;18.75;8.30;;;;;;;;;;5024741;28;20057;-66
2021/11/13 08:25:45;;;;;;;15.02;6.85;;;;;;;;;;5025597;28;20136;-66
2021/11/13 08:28:14;;;;;;;14.55;6.68;;;;;;;;;;5024275;28;20560;-67
2021/11/13 08:30:45;;;;;;;16.38;6.60;;;;;;;;;;5023751;28;20051;-66
2021/11/13 08:33:15;;;;;;;14.52;7.40;;;;;;;;;;5027467;28;20384;-66
2021/11/13 08:35:44;;;;;;;14.77;6.93;;;;;;;;;;5014965;28;20132;-66
2021/11/13 08:38:13;;;;;;;13.45;6.10;;;;;;;;;;5025482;28;20105;-66
2021/11/13 08:40:42;;;;;;;16.65;6.70;;;;;;;;;;5023743;28;20489;-66
2021/11/13 08:43:14;;;;;;;15.82;6.85;;;;;;;;;;5024765;28;20445;-66
2021/11/13 08:45:43;;;;;;;15.27;6.85;;;;;;;;;;5026497;28;20100;-65
2021/11/13 08:48:12;;;;;;;15.20;6.70;;;;;;;;;;5028663;28;20077;-66
2021/11/13 08:50:42;;;;;;;13.40;6.93;;;;;;;;;;5030973;28;20073;-66
2021/11/13 08:53:11;;;;;;;16.73;7.10;;;;;;;;;;5018408;28;20062;-65
2021/11/13 08:55:40;;;;;;;17.27;7.25;;;;;;;;;;5027626;28;20045;-67
2021/11/13 08:58:09;;;;;;;13.88;6.60;;;;;;;;;;5030391;28;20049;-67
2021/11/13 09:00:40;;;;;;;13.75;6.85;;;;;;;;;;5033254;28;20057;-66
2021/11/13 09:03:10;;;;;;;14.23;6.97;;;;;;;;;;5023218;28;20050;-66
2021/11/13 09:05:39;;;;;;;21.02;8.60;;;;;;;;;;5030350;28;20045;-66
2021/11/13 09:08:09;;;;;;;14.75;7.57;;;;;;;;;;5034381;28;20076;-66
2021/11/13 09:10:38;;;;;;;18.52;7.55;;;;;;;;;;5032182;28;20049;-65
2021/11/13 09:13:09;;;;;;;16.90;7.35;;;;;;;;;;5033363;28;20077;-65
2021/11/13 09:15:39;;;;;;;17.08;7.97;;;;;;;;;;5023977;28;20159;-66
2021/11/13 09:18:08;;;;;;;17.35;7.90;;;;;;;;;;5033973;28;20041;-67
2021/11/13 09:20:39;;;;;;;14.90;7.20;;;;;;;;;;5033020;28;20045;-66
2021/11/13 09:23:11;;;;;;;15.60;7.63;;;;;;;;;;5051215;28;20075;-65
2021/11/13 09:25:39;;;;;;;16.20;7.78;;;;;;;;;;5052290;28;20080;-65
2021/11/13 09:28:08;;;;;;;16.75;7.25;;;;;;;;;;5054994;28;20052;-66
2021/11/13 09:30:37;;;;;;;18.95;7.15;;;;;;;;;;5051702;28;20522;-66
2021/11/13 09:33:05;;;;;;;13.70;7.32;;;;;;;;;;5053487;28;20057;-66
2021/11/13 09:35:35;;;;;;;15.68;6.90;;;;;;;;;;5055662;28;20501;-66
2021/11/13 09:38:24;;;;;;;14.32;6.95;;;;;;;;;;5047917;28;20131;-66
2021/11/13 09:40:53;;;;;;;18.23;8.82;;;;;;;;;;5049018;28;20072;-66
2021/11/13 09:43:23;;;;;;;18.17;6.93;;;;;;;;;;5050004;28;20104;-67
2021/11/13 09:45:52;;;;;;;14.07;7.20;;;;;;;;;;5050444;28;20122;-66
2021/11/13 09:48:21;;;;;;;15.13;7.43;;;;;;;;;;5049626;28;20080;-66
2021/11/13 09:50:50;;;;;;;14.25;7.43;;;;;;;;;;5061833;28;20552;-67
2021/11/13 09:53:19;;;;;;;15.80;6.95;;;;;;;;;;5046690;28;20044;-67
2021/11/13 09:55:49;;;;;;;13.52;6.75;;;;;;;;;;5055729;28;20063;-66
2021/11/13 09:58:18;;;;;;;15.40;7.40;;;;;;;;;;5048865;28;20128;-66
2021/11/13 10:00:46;;;;;;;11.88;6.78;;;;;;;;;;5043234;28;20132;-66
2021/11/13 10:03:18;;;;;;;15.40;7.68;;;;;;;;;;5047117;28;20045;-67
2021/11/13 10:05:47;;;;;;;16.48;7.25;;;;;;;;;;5048127;28;20140;-66
2021/11/13 10:08:15;;;;;;;16.10;7.47;;;;;;;;;;5045901;28;20087;-66
2021/11/13 10:10:44;;;;;;;16.52;7.85;;;;;;;;;;5056273;28;20119;-66
2021/11/13 10:13:31;;;;;;;12.25;6.88;;;;;;;;;;5053096;28;20099;-66
2021/11/13 10:16:00;;;;;;;17.17;7.13;;;;;;;;;;5048081;28;20092;-67
2021/11/13 10:18:30;;;;;;;13.73;6.90;;;;;;;;;;5047492;28;20068;-66
2021/11/13 10:21:03;;;;;;;14.93;7.05;;;;;;;;;;5047284;28;20095;-67
2021/11/13 10:23:37;;;;;;;13.98;7.45;;;;;;;;;;5046412;28;20152;-66
2021/11/13 10:26:07;;;;;;;15.18;7.00;;;;;;;;;;5047181;28;20457;-66
2021/11/13 10:28:43;;;;;;;14.32;7.35;;;;;;;;;;5045890;28;20049;-66
2021/11/13 10:31:13;;;;;;;13.25;6.97;;;;;;;;;;5048619;28;20052;-66
2021/11/13 10:33:42;;;;;;;15.45;7.32;;;;;;;;;;5047369;28;20052;-66
2021/11/13 10:36:10;;;;;;;15.48;7.18;;;;;;;;;;5047560;28;20081;-66
2021/11/13 10:38:39;;;;;;;14.27;7.05;;;;;;;;;;5048238;28;20073;-66
2021/11/13 10:41:09;;;;;;;13.20;7.65;;;;;;;;;;5048533;28;20124;-66
2021/11/13 10:43:38;;;;;;;14.18;7.63;;;;;;;;;;5046802;28;20076;-65
2021/11/13 10:46:09;;;;;;;15.57;7.80;;;;;;;;;;5058130;28;20045;-66
2021/11/13 10:48:39;;;;;;;16.50;7.15;;;;;;;;;;5050949;28;20052;-66
2021/11/13 10:51:09;;;;;;;15.77;6.78;;;;;;;;;;5049071;28;20056;-67
2021/11/13 10:53:38;;;;;;;14.85;6.82;;;;;;;;;;5047512;28;20092;-66
2021/11/13 10:56:17;;;;;;;12.60;7.55;;;;;;;;;;5046047;28;20049;-66
2021/11/13 10:59:03;;;;;;;17.10;8.25;;;;;;;;;;5046425;28;20052;-66
2021/11/13 11:01:36;;;;;;;12.15;6.53;;;;;;;;;;5046789;28;20053;-66
2021/11/13 11:04:09;;;;;;;13.18;7.07;;;;;;;;;;5058576;28;20064;-65
2021/11/13 11:06:46;;;;;;;14.55;7.22;;;;;;;;;;5046127;28;20240;-66
2021/11/13 11:09:16;;;;;;;14.25;7.72;;;;;;;;;;5043195;28;20048;-66
2021/11/13 11:11:45;;;;;;;16.33;7.45;;;;;;;;;;5046025;28;20087;-66
2021/11/13 11:14:15;;;;;;;16.45;7.88;;;;;;;;;;5045545;28;20045;-65
2021/11/13 11:16:45;;;;;;;15.77;7.35;;;;;;;;;;5038910;28;20587;-65
2021/11/13 11:19:15;;;;;;;13.65;7.13;;;;;;;;;;5045513;28;20084;-66
2021/11/13 11:21:48;;;;;;;12.52;6.43;;;;;;;;;;5045906;28;20252;-66
2021/11/13 11:24:17;;;;;;;16.13;7.13;;;;;;;;;;5046262;28;20067;-67
2021/11/13 11:26:47;;;;;;;14.82;7.35;;;;;;;;;;5048685;28;20068;-66
2021/11/13 11:29:15;;;;;;;17.00;7.85;;;;;;;;;;5046800;28;20041;-65
2021/11/13 11:31:47;;;;;;;18.92;8.00;;;;;;;;;;5044667;28;20368;-66
2021/11/13 11:34:27;;;;;;;17.17;7.57;;;;;;;;;;5047076;28;20144;-65
2021/11/13 11:36:56;;;;;;;16.25;7.65;;;;;;;;;;5046695;28;20447;-66
2021/11/13 11:39:25;;;;;;;18.35;7.32;;;;;;;;;;5046367;28;20080;-66
2021/11/13 11:41:53;;;;;;;17.38;7.75;;;;;;;;;;5045772;28;20057;-66
2021/11/13 11:44:22;;;;;;;14.07;7.72;;;;;;;;;;5045413;28;20496;-67
2021/11/13 11:46:53;;;;;;;16.27;8.18;;;;;;;;;;5048006;28;20063;-66
2021/11/13 11:49:21;;;;;;;13.05;7.88;;;;;;;;;;5049221;28;20051;-65
2021/11/13 11:51:50;;;;;;;15.90;8.25;;;;;;;;;;5045835;28;20079;-66
2021/11/13 11:54:18;;;;;;;18.75;7.75;;;;;;;;;;5046364;28;20076;-67
2021/11/13 11:56:46;;;;;;;16.02;8.48;;;;;;;;;;5047101;28;20140;-66
2021/11/13 11:59:15;;;;;;;17.95;7.78;;;;;;;;;;5048871;28;20115;-66
2021/11/13 12:01:44;;;;;;;18.38;8.18;;;;;;;;;;5050289;28;20091;-67
2021/11/13 12:04:15;;;;;;;16.92;8.05;;;;;;;;;;5048630;28;20071;-67
2021/11/13 12:06:44;;;;;;;17.30;8.57;;;;;;;;;;5049922;28;20060;-67
2021/11/13 12:09:13;;;;;;;17.08;7.10;;;;;;;;;;5050555;28;20572;-67
2021/11/13 12:11:42;;;;;;;16.38;7.85;;;;;;;;;;5050305;28;20041;-66
2021/11/13 12:14:31;;;;;;;13.77;7.22;;;;;;;;;;5045544;28;20497;-67
2021/11/13 12:17:18;;;;;;;17.58;7.78;;;;;;;;;;5050689;28;20045;-67
2021/11/13 12:20:02;;;;;;;24.38;8.65;;;;;;;;;;5049445;28;20091;-67
2021/11/13 12:22:37;;;;;;;16.63;7.90;;;;;;;;;;5051956;28;20123;-67
2021/11/13 12:25:15;;;;;;;17.30;7.85;;;;;;;;;;5053348;28;20053;-66
2021/11/13 12:27:44;;;;;;;18.73;7.70;;;;;;;;;;5052344;28;20069;-67
2021/11/13 12:30:13;;;;;;;17.98;8.77;;;;;;;;;;5054056;28;20053;-67
2021/11/13 12:32:42;;;;;;;16.90;7.43;;;;;;;;;;5061104;28;20045;-67
2021/11/13 12:35:16;;;;;;;17.65;7.70;;;;;;;;;;5055937;28;20040;-67
2021/11/13 12:37:46;;;;;;;14.25;7.38;;;;;;;;;;5050826;28;20048;-67
2021/11/13 12:40:14;;;;;;;15.82;7.72;;;;;;;;;;5048286;28;20052;-67
2021/11/13 12:42:43;;;;;;;15.93;7.38;;;;;;;;;;5049331;28;20102;-67
2021/11/13 12:45:12;;;;;;;18.65;7.88;;;;;;;;;;5050689;28;20120;-67
2021/11/13 12:47:40;;;;;;;16.25;7.63;;;;;;;;;;5048463;28;20048;-66
2021/11/13 12:50:09;;;;;;;15.02;7.38;;;;;;;;;;5051555;28;20131;-67
2021/11/13 12:52:48;;;;;;;17.10;7.97;;;;;;;;;;5047330;28;20056;-67
2021/11/13 12:55:19;;;;;;;18.42;8.45;;;;;;;;;;5057952;28;20102;-67
2021/11/13 12:57:58;;;;;;;17.60;8.23;;;;;;;;;;5050637;28;20045;-67
2021/11/13 13:00:28;;;;;;;17.80;8.85;;;;;;;;;;5060430;28;20092;-66
2021/11/13 13:03:07;;;;;;;16.58;8.30;;;;;;;;;;5059200;28;20059;-66
2021/11/13 13:05:35;;;;;;;19.83;8.90;;;;;;;;;;5047295;28;20110;-66
2021/11/13 13:08:05;;;;;;;18.17;8.93;;;;;;;;;;5047518;28;20127;-66
2021/11/13 13:10:34;;;;;;;16.75;8.02;;;;;;;;;;5047235;28;20137;-66
2021/11/13 13:13:07;;;;;;;15.88;8.48;;;;;;;;;;5037194;28;20092;-66
2021/11/13 13:15:37;;;;;;;17.02;8.60;;;;;;;;;;5049308;28;20138;-66
2021/11/13 13:18:09;;;;;;;15.05;7.63;;;;;;;;;;5050378;28;20057;-66
2021/11/13 13:20:39;;;;;;;15.40;7.78;;;;;;;;;;5048938;28;20531;-66
2021/11/13 13:23:09;;;;;;;16.33;8.50;;;;;;;;;;5049252;28;20056;-66
2021/11/13 13:25:39;;;;;;;14.98;7.78;;;;;;;;;;5048691;28;20445;-66
2021/11/13 13:28:07;;;;;;;18.08;8.75;;;;;;;;;;5049149;28;20141;-66
2021/11/13 13:30:36;;;;;;;15.35;7.50;;;;;;;;;;5049193;28;20135;-66
2021/11/13 13:33:05;;;;;;;16.30;8.45;;;;;;;;;;5048632;28;20107;-66
2021/11/13 13:35:34;;;;;;;15.15;8.00;;;;;;;;;;5048931;28;20156;-65
2021/11/13 13:38:05;;;;;;;21.15;7.93;;;;;;;;;;5049370;28;20070;-66
2021/11/13 13:40:36;;;;;;;15.82;8.10;;;;;;;;;;5048681;28;20479;-66
2021/11/13 13:43:18;;;;;;;20.52;9.45;;;;;;;;;;5048021;28;20060;-67
2021/11/13 13:45:48;;;;;;;17.13;8.73;;;;;;;;;;5050026;28;20071;-66
2021/11/13 13:48:19;;;;;;;14.93;8.20;;;;;;;;;;5052109;28;20500;-66
2021/11/13 13:50:49;;;;;;;16.92;7.80;;;;;;;;;;5053226;28;20051;-66
2021/11/13 13:53:17;;;;;;;15.55;8.52;;;;;;;;;;5052338;28;20049;-66
2021/11/13 13:55:48;;;;;;;18.35;7.95;;;;;;;;;;5051812;28;20088;-66
2021/11/13 13:58:17;;;;;;;18.40;9.25;;;;;;;;;;5048614;28;20131;-67
2021/11/13 14:00:47;;;;;;;16.33;8.20;;;;;;;;;;5052786;28;20049;-66
2021/11/13 14:03:22;;;;;;;15.60;8.02;;;;;;;;;;5052133;28;20052;-67
2021/11/13 14:05:50;;;;;;;22.52;8.93;;;;;;;;;;5051352;28;20553;-66
2021/11/13 14:08:19;;;;;;;17.58;8.23;;;;;;;;;;5051207;28;20080;-66
2021/11/13 14:10:50;;;;;;;18.15;8.18;;;;;;;;;;5052057;28;20055;-67
2021/11/13 14:13:19;;;;;;;19.83;9.13;;;;;;;;;;5049824;28;20071;-66
2021/11/13 14:15:55;;;;;;;18.63;9.13;;;;;;;;;;5054539;28;20131;-66
2021/11/13 14:18:41;;;;;;;17.38;8.52;;;;;;;;;;5049551;28;20564;-66
2021/11/13 14:21:10;;;;;;;18.73;8.52;;;;;;;;;;5047540;28;20049;-66
2021/11/13 14:23:40;;;;;;;21.42;8.85;;;;;;;;;;5049689;28;20079;-66
2021/11/13 14:26:11;;;;;;;18.20;8.82;;;;;;;;;;5050841;28;20095;-67
2021/11/13 14:28:41;;;;;;;16.15;7.22;;;;;;;;;;5048018;28;20404;-67
2021/11/13 14:31:14;;;;;;;18.88;9.05;;;;;;;;;;5051628;28;20107;-66
2021/11/13 14:33:47;;;;;;;17.90;8.35;;;;;;;;;;5056330;28;20403;-66
2021/11/13 14:36:18;;;;;;;18.25;8.57;;;;;;;;;;5055414;28;20049;-66
2021/11/13 14:38:53;;;;;;;20.77;9.00;;;;;;;;;;5051870;28;20140;-67
2021/11/13 14:41:23;;;;;;;23.60;9.65;;;;;;;;;;5050926;28;20156;-67
2021/11/13 14:43:51;;;;;;;23.63;8.95;;;;;;;;;;5050226;28;20085;-67
2021/11/13 14:46:23;;;;;;;22.95;9.27;;;;;;;;;;5047782;28;20414;-68